Time;durP1;ratioP1;P1;durP2;ratioP2;P2;SDS_P1;SDS_P2;PMS_P1;PMS_P2;Temp;Humidity;BMP_temperature;BMP_pressure;BME280_temperature;BME280_humidity;BME280_pressure;Samples;Min_cycle;Max_cycle;Signal;HPM_P1;HPM_P2
2021/11/26 00:00:12;;;;;;;49.77;24.67;;;;;;;-2.48;100.00;101109.66;1709329;82;20952;-73
2021/11/26 00:02:41;;;;;;;66.40;27.22;;;;;;;-2.48;100.00;101109.66;1712855;81;21130;-61
2021/11/26 00:05:09;;;;;;;51.65;25.68;;;;;;;-2.36;100.00;101115.85;1715365;81;20964;-61
2021/11/26 00:07:36;;;;;;;60.23;26.35;;;;;;;-2.36;100.00;101115.85;1720825;81;21006;-63
2021/11/26 00:10:23;;;;;;;55.52;26.68;;;;;;;-1.72;100.00;101100.95;1716145;81;21156;-62
2021/11/26 00:12:54;;;;;;;60.12;27.32;;;;;;;-1.72;100.00;101100.95;1634496;85;21817;-61
2021/11/26 00:15:35;;;;;;;61.28;27.60;;;;;;;-1.65;100.00;101099.36;1642141;85;21143;-60
2021/11/26 00:17:55;;;;;;;56.45;26.90;;;;;;;-1.65;100.00;101099.36;1640219;86;20963;-70
2021/11/26 00:20:21;;;;;;;52.40;25.00;;;;;;;-1.57;100.00;101087.80;1651824;84;21045;-62
2021/11/26 00:22:49;;;;;;;53.87;26.35;;;;;;;-1.57;100.00;101087.80;1672134;84;21143;-62
2021/11/26 00:25:16;;;;;;;50.28;23.38;;;;;;;-1.56;100.00;101084.31;1626612;86;21046;-61
2021/11/26 00:27:44;;;;;;;45.05;23.57;;;;;;;-1.34;100.00;101078.84;1652063;85;21015;-61
2021/11/26 00:30:12;;;;;;;48.52;23.52;;;;;;;-1.31;100.00;101077.39;1650290;86;20932;-68
2021/11/26 00:32:39;;;;;;;41.83;21.62;;;;;;;-1.13;100.00;101060.65;1651361;86;21118;-61
2021/11/26 00:35:09;;;;;;;46.05;22.40;;;;;;;-1.06;100.00;101062.77;1641656;86;21026;-61
2021/11/26 00:37:37;;;;;;;43.25;22.02;;;;;;;-1.06;100.00;101062.77;1651354;86;20952;-72
2021/11/26 00:40:05;;;;;;;40.08;19.77;;;;;;;-1.12;100.00;101067.41;1664073;84;21449;-60
2021/11/26 00:42:33;;;;;;;54.77;26.85;;;;;;;-0.74;100.00;101059.59;1663185;85;21560;-61
2021/11/26 00:45:00;;;;;;;40.10;20.62;;;;;;;-0.74;100.00;101059.59;1659709;85;22080;-60
2021/11/26 00:47:27;;;;;;;47.33;21.70;;;;;;;-0.90;100.00;101064.44;1651635;86;22267;-61
2021/11/26 00:49:54;;;;;;;42.73;21.45;;;;;;;-0.97;100.00;101052.91;1661704;85;22088;-61
2021/11/26 00:52:24;;;;;;;39.08;20.72;;;;;;;-2.00;100.00;101054.81;1635941;85;21078;-71
2021/11/26 00:54:51;;;;;;;37.93;20.68;;;;;;;-1.69;100.00;101056.98;1662615;84;21073;-59
2021/11/26 00:57:19;;;;;;;38.65;19.23;;;;;;;-1.79;100.00;101048.52;1651419;86;21011;-61
2021/11/26 00:59:47;;;;;;;45.15;22.22;;;;;;;-1.78;100.00;101051.47;1669345;84;21165;-60
2021/11/26 01:02:14;;;;;;;60.65;25.62;;;;;;;-1.35;100.00;101046.97;1643552;85;21057;-60
2021/11/26 01:04:42;;;;;;;37.40;19.87;;;;;;;-1.11;100.00;101037.06;1663217;85;21016;-63
2021/11/26 01:07:09;;;;;;;45.92;21.05;;;;;;;-1.06;100.00;101041.02;1663958;85;21085;-60
2021/11/26 01:09:38;;;;;;;36.13;18.77;;;;;;;-1.67;100.00;101044.92;1656970;85;20958;-62
2021/11/26 01:12:07;;;;;;;37.98;17.02;;;;;;;-1.60;100.00;101043.22;1701224;83;21160;-60
2021/11/26 01:14:35;;;;;;;38.48;19.70;;;;;;;-1.64;100.00;101040.47;1712097;82;20927;-68
2021/11/26 01:17:02;;;;;;;33.88;17.25;;;;;;;-1.54;100.00;101043.34;1711990;83;21588;-61
2021/11/26 01:19:31;;;;;;;38.48;16.52;;;;;;;-1.64;100.00;101039.64;1706275;83;21061;-61
2021/11/26 01:22:00;;;;;;;33.88;18.10;;;;;;;-1.72;100.00;101039.61;1703958;84;21029;-60
2021/11/26 01:24:27;;;;;;;33.85;17.87;;;;;;;-1.52;100.00;101035.12;1704457;83;21218;-61
2021/11/26 01:26:55;;;;;;;34.08;17.57;;;;;;;-1.48;100.00;101023.80;1704023;84;21296;-61
2021/11/26 01:29:22;;;;;;;34.65;17.20;;;;;;;-1.54;100.00;101010.92;1703690;84;20975;-60
2021/11/26 01:31:49;;;;;;;34.73;18.07;;;;;;;-1.48;100.00;101007.19;1704567;84;21081;-60
2021/11/26 01:34:17;;;;;;;36.75;18.92;;;;;;;-1.47;100.00;101003.74;1713438;82;21132;-60
2021/11/26 01:36:48;;;;;;;38.95;19.70;;;;;;;-1.68;100.00;101003.66;1704644;84;21547;-61
2021/11/26 01:39:14;;;;;;;36.63;18.65;;;;;;;-1.70;100.00;101002.48;1703151;82;20948;-63
2021/11/26 01:41:43;;;;;;;39.50;19.10;;;;;;;-1.58;100.00;101006.08;1704063;84;22393;-61
2021/11/26 01:44:11;;;;;;;37.85;18.92;;;;;;;-1.38;100.00;100999.37;1704414;84;20991;-60
2021/11/26 01:46:41;;;;;;;33.05;18.73;;;;;;;-1.22;100.00;100995.00;1704572;84;21003;-62
2021/11/26 01:49:08;;;;;;;33.10;19.25;;;;;;;-0.95;100.00;100996.86;1692301;84;21504;-61
2021/11/26 01:51:37;;;;;;;32.20;17.27;;;;;;;-1.22;100.00;100998.02;1704518;84;22336;-60
2021/11/26 01:54:05;;;;;;;31.17;16.42;;;;;;;-0.97;100.00;100996.14;1731795;82;21551;-61
2021/11/26 01:56:32;;;;;;;36.48;16.97;;;;;;;-0.81;100.00;101004.55;1699523;83;21444;-60
2021/11/26 01:58:59;;;;;;;30.37;16.15;;;;;;;-0.88;100.00;101007.11;1708666;82;21623;-72
2021/11/26 02:01:27;;;;;;;32.23;15.65;;;;;;;-0.72;100.00;101003.63;1712263;82;21155;-61
2021/11/26 02:03:55;;;;;;;33.67;14.93;;;;;;;-0.62;100.00;101003.45;1712503;82;21599;-60
2021/11/26 02:06:22;;;;;;;28.05;15.98;;;;;;;-0.96;100.00;101002.90;1707834;83;20995;-60
2021/11/26 02:08:49;;;;;;;31.23;16.23;;;;;;;-0.79;100.00;100995.05;1704241;84;20982;-73
2021/11/26 02:11:18;;;;;;;31.20;17.95;;;;;;;-0.67;100.00;100988.38;1703872;83;21713;-72
2021/11/26 02:13:47;;;;;;;33.28;18.07;;;;;;;-0.83;100.00;100985.09;1707875;83;21736;-61
2021/11/26 02:16:15;;;;;;;35.40;19.75;;;;;;;-0.90;100.00;100981.25;1704303;84;21367;-60
2021/11/26 02:18:48;;;;;;;34.53;18.57;;;;;;;-0.84;100.00;100977.84;1703985;84;20972;-61
2021/11/26 02:21:17;;;;;;;42.25;19.48;;;;;;;-0.77;100.00;100980.88;1703619;84;21171;-71
2021/11/26 02:23:48;;;;;;;39.70;17.90;;;;;;;-0.63;100.00;100977.48;1704520;84;22483;-61
2021/11/26 02:26:16;;;;;;;34.88;19.10;;;;;;;-0.71;100.00;100982.26;1704524;84;22439;-60
2021/11/26 02:28:43;;;;;;;45.70;19.70;;;;;;;-0.61;100.00;100984.61;1703768;82;20888;-65
2021/11/26 02:31:12;;;;;;;36.05;18.87;;;;;;;-0.42;100.00;100976.16;1707531;83;21070;-71
2021/11/26 02:33:41;;;;;;;44.65;22.15;;;;;;;-0.46;100.00;100979.83;1704017;84;20928;-62
2021/11/26 02:36:11;;;;;;;39.15;20.15;;;;;;;-0.39;100.00;100977.25;1693408;83;21049;-59
2021/11/26 02:38:38;;;;;;;48.25;21.87;;;;;;;-0.46;100.00;100977.27;1712355;83;21126;-60
2021/11/26 02:41:06;;;;;;;47.60;21.65;;;;;;;-0.30;100.00;100981.01;1715365;82;21059;-72
2021/11/26 02:43:35;;;;;;;46.92;25.20;;;;;;;-0.86;100.00;100974.58;1714766;83;20908;-59
2021/11/26 02:46:03;;;;;;;57.83;25.12;;;;;;;-1.93;100.00;100979.48;1715104;82;21054;-59
2021/11/26 02:48:30;;;;;;;58.80;26.37;;;;;;;-1.49;100.00;100978.24;1704492;83;20960;-63
2021/11/26 02:50:59;;;;;;;50.10;23.57;;;;;;;-1.12;100.00;100972.28;1703267;82;22327;-73
2021/11/26 02:53:26;;;;;;;47.60;23.25;;;;;;;-1.01;100.00;100979.33;1705128;83;21016;-62
2021/11/26 02:55:53;;;;;;;50.00;25.05;;;;;;;-0.77;100.00;100974.47;1703955;84;21082;-61
2021/11/26 02:58:21;;;;;;;51.60;23.42;;;;;;;-1.16;100.00;100964.42;1704379;83;21050;-62
2021/11/26 03:00:52;;;;;;;57.35;28.25;;;;;;;-0.72;100.00;100961.39;1703284;84;21007;-62
2021/11/26 03:03:19;;;;;;;56.03;25.33;;;;;;;-0.87;100.00;100960.14;1704338;83;21127;-60
2021/11/26 03:05:46;;;;;;;53.68;25.95;;;;;;;-0.58;100.00;100957.54;1704337;84;21505;-59
2021/11/26 03:08:14;;;;;;;58.17;25.70;;;;;;;-0.60;100.00;100950.42;1704290;84;21481;-60
2021/11/26 03:10:44;;;;;;;50.35;25.95;;;;;;;-0.25;100.00;100945.20;1703321;82;20971;-72
2021/11/26 03:13:11;;;;;;;53.68;27.55;;;;;;;-1.53;100.00;100946.55;1703616;84;21599;-60
2021/11/26 03:15:40;;;;;;;48.83;25.97;;;;;;;-0.79;100.00;100946.88;1704084;83;21571;-62
2021/11/26 03:18:08;;;;;;;55.73;25.20;;;;;;;-1.17;100.00;100940.22;1693045;84;20994;-61
2021/11/26 03:20:37;;;;;;;42.50;21.73;;;;;;;-1.37;100.00;100946.02;1704435;84;20947;-72
2021/11/26 03:23:04;;;;;;;39.35;21.10;;;;;;;-1.47;100.00;100951.33;1703444;84;21055;-72
2021/11/26 03:25:33;;;;;;;43.73;23.40;;;;;;;-1.48;100.00;100950.94;1704352;84;21106;-60
2021/11/26 03:28:00;;;;;;;47.65;21.42;;;;;;;-1.52;100.00;100942.62;1704383;84;21137;-59
2021/11/26 03:30:29;;;;;;;45.73;23.47;;;;;;;-1.46;100.00;100938.90;1704619;84;20990;-62
2021/11/26 03:32:56;;;;;;;52.33;24.15;;;;;;;-1.79;100.00;100946.30;1703633;84;21038;-59
2021/11/26 03:35:23;;;;;;;48.15;23.80;;;;;;;-1.87;100.00;100943.36;1703719;84;21196;-60
2021/11/26 03:37:51;;;;;;;49.42;22.73;;;;;;;-1.99;100.00;100928.27;1704031;84;22354;-63
2021/11/26 03:40:19;;;;;;;50.70;23.27;;;;;;;-2.13;100.00;100935.05;1731738;82;21797;-60
2021/11/26 03:42:46;;;;;;;51.28;25.10;;;;;;;-1.95;100.00;100932.75;1703406;84;20908;-60
2021/11/26 03:45:16;;;;;;;47.50;22.45;;;;;;;-1.78;100.00;100940.73;1703566;83;21137;-72
2021/11/26 03:47:43;;;;;;;53.73;24.35;;;;;;;-1.92;100.00;100935.59;1704173;84;21074;-60
2021/11/26 03:50:10;;;;;;;60.43;25.08;;;;;;;-1.93;100.00;100928.81;1704819;84;21154;-59
2021/11/26 03:52:38;;;;;;;52.40;24.52;;;;;;;-1.87;100.00;100933.59;1703561;84;21112;-62
2021/11/26 03:55:07;;;;;;;52.70;23.12;;;;;;;-1.91;100.00;100931.66;1704084;84;21006;-58
2021/11/26 03:57:34;;;;;;;52.08;24.25;;;;;;;-1.94;100.00;100937.40;1704041;84;21003;-60
2021/11/26 04:02:40;;;;;;;53.63;24.30;;;;;;;-1.74;100.00;100934.10;1675512;84;20951;-62
2021/11/26 04:05:08;;;;;;;39.85;20.85;;;;;;;-1.76;100.00;100929.52;1665241;85;21176;-69
2021/11/26 04:07:36;;;;;;;46.33;23.42;;;;;;;-1.77;100.00;100927.88;1675294;85;21004;-63
2021/11/26 04:10:04;;;;;;;43.83;21.52;;;;;;;-1.75;100.00;100926.50;1676738;85;20951;-72
2021/11/26 04:12:32;;;;;;;45.12;22.32;;;;;;;-1.81;100.00;100928.97;1675206;85;20998;-61
2021/11/26 04:14:59;;;;;;;43.90;23.60;;;;;;;-1.57;100.00;100945.09;1675752;85;21073;-63
2021/11/26 04:17:26;;;;;;;48.45;23.27;;;;;;;-1.06;100.00;100944.22;1675216;85;23099;-60
2021/11/26 04:19:54;;;;;;;52.13;25.02;;;;;;;-1.15;100.00;100937.10;1675765;85;21101;-73
2021/11/26 04:22:21;;;;;;;49.95;24.30;;;;;;;-0.54;100.00;100934.66;1676177;84;21515;-61
2021/11/26 04:24:50;;;;;;;42.13;20.68;;;;;;;-0.33;100.00;100936.36;1676431;85;21524;-60
2021/11/26 04:27:19;;;;;;;38.45;20.50;;;;;;;-0.34;100.00;100941.10;1673830;85;20935;-68
2021/11/26 04:29:47;;;;;;;42.03;21.27;;;;;;;-0.15;100.00;100935.64;1675657;85;21127;-73
2021/11/26 04:32:15;;;;;;;40.20;20.92;;;;;;;-0.17;100.00;100931.91;1708199;83;20952;-63
2021/11/26 04:34:43;;;;;;;39.10;20.70;;;;;;;-0.11;100.00;100956.34;1717563;82;20969;-62
2021/11/26 04:37:10;;;;;;;40.12;19.82;;;;;;;-0.23;100.00;100936.59;1717569;82;20971;-60
2021/11/26 04:39:38;;;;;;;44.63;22.07;;;;;;;-0.07;100.00;100936.82;1705851;83;20928;-71
2021/11/26 04:42:05;;;;;;;48.02;22.22;;;;;;;0.07;100.00;100941.51;1705983;82;21628;-61
2021/11/26 04:44:33;;;;;;;51.73;23.18;;;;;;;0.33;100.00;100951.37;1706091;84;21084;-62
2021/11/26 04:47:00;;;;;;;44.38;21.50;;;;;;;0.45;100.00;100954.41;1707210;82;21010;-61
2021/11/26 04:49:29;;;;;;;47.30;22.62;;;;;;;0.61;100.00;100957.62;1708505;82;21074;-62
2021/11/26 04:51:58;;;;;;;45.75;23.10;;;;;;;0.79;100.00;100954.73;1705280;82;21433;-66
2021/11/26 04:54:25;;;;;;;45.58;21.15;;;;;;;0.77;100.00;100951.00;1706189;82;22014;-62
2021/11/26 04:56:53;;;;;;;38.35;21.07;;;;;;;0.94;100.00;100952.42;1707054;82;21548;-61
2021/11/26 04:59:20;;;;;;;35.25;18.98;;;;;;;0.89;100.00;100955.77;1711342;82;20943;-61
2021/11/26 05:01:47;;;;;;;37.63;18.17;;;;;;;1.09;100.00;100964.22;1718510;82;20943;-62
2021/11/26 05:04:17;;;;;;;58.40;21.17;;;;;;;1.05;100.00;100964.53;1702629;82;20993;-61
2021/11/26 05:06:45;;;;;;;42.58;19.48;;;;;;;1.03;100.00;100956.95;1675033;84;21165;-61
2021/11/26 05:09:14;;;;;;;37.95;20.30;;;;;;;1.05;100.00;100952.98;1674971;84;20915;-61
2021/11/26 05:11:42;;;;;;;36.08;18.87;;;;;;;1.21;100.00;100954.42;1675745;84;21026;-65
2021/11/26 05:14:09;;;;;;;38.60;19.27;;;;;;;1.35;100.00;100959.86;1654033;85;20951;-76
2021/11/26 05:16:36;;;;;;;42.17;20.95;;;;;;;1.48;100.00;100950.86;1653765;85;21082;-61
2021/11/26 05:19:03;;;;;;;34.98;18.10;;;;;;;1.60;100.00;100947.89;1654699;85;21820;-61
2021/11/26 05:21:31;;;;;;;44.33;22.20;;;;;;;1.46;100.00;100948.85;1661464;85;21103;-60
2021/11/26 05:24:00;;;;;;;38.53;20.97;;;;;;;1.76;100.00;100946.34;1659360;85;21070;-62
2021/11/26 05:26:27;;;;;;;34.98;17.85;;;;;;;1.70;100.00;100944.57;1654487;85;21188;-67
2021/11/26 05:28:55;;;;;;;35.60;19.52;;;;;;;1.90;100.00;100939.75;1652783;84;21128;-61
2021/11/26 05:31:22;;;;;;;35.00;18.95;;;;;;;1.82;100.00;100930.45;1669170;84;21179;-59
2021/11/26 05:33:50;;;;;;;38.75;17.12;;;;;;;2.02;100.00;100926.48;1669452;84;20995;-63
2021/11/26 05:36:19;;;;;;;30.75;18.00;;;;;;;0.91;100.00;100934.22;1668407;84;21133;-64
2021/11/26 05:38:46;;;;;;;42.08;22.55;;;;;;;1.13;100.00;100925.85;1667549;84;21141;-60
2021/11/26 05:41:13;;;;;;;32.53;19.02;;;;;;;1.22;100.00;100924.41;1669768;84;21018;-60
2021/11/26 05:43:40;;;;;;;38.75;22.15;;;;;;;1.20;100.00;100936.06;1670131;84;21087;-61
2021/11/26 05:46:07;;;;;;;35.85;21.93;;;;;;;1.14;100.00;100939.53;1658703;84;20911;-68
2021/11/26 05:48:35;;;;;;;36.80;19.40;;;;;;;1.18;100.00;100934.55;1655908;85;20963;-61
2021/11/26 05:51:02;;;;;;;37.95;19.23;;;;;;;1.31;100.00;100941.74;1654755;85;20955;-62
2021/11/26 05:53:29;;;;;;;41.48;20.50;;;;;;;1.42;100.00;100928.97;1654432;85;21487;-60
2021/11/26 05:55:59;;;;;;;39.33;22.93;;;;;;;1.51;100.00;100929.25;1654877;85;21937;-70
2021/11/26 05:58:26;;;;;;;41.77;22.10;;;;;;;1.21;100.00;100926.17;1653847;85;21028;-63
2021/11/26 06:00:54;;;;;;;41.02;25.35;;;;;;;1.24;100.00;100929.44;1653959;85;21016;-68
2021/11/26 06:03:24;;;;;;;38.73;20.52;;;;;;;1.27;100.00;100931.80;1636308;87;22424;-59
2021/11/26 06:05:52;;;;;;;43.48;22.58;;;;;;;1.85;100.00;100937.48;1598959;88;21018;-68
2021/11/26 06:08:19;;;;;;;47.90;22.20;;;;;;;1.84;100.00;100935.05;1617097;87;21128;-61
2021/11/26 06:10:47;;;;;;;44.93;22.10;;;;;;;1.51;100.00;100937.77;1617012;87;22280;-67
2021/11/26 06:13:14;;;;;;;39.80;19.87;;;;;;;1.85;100.00;100932.34;1617021;87;22052;-61
2021/11/26 06:15:42;;;;;;;39.33;21.87;;;;;;;1.58;100.00;100931.75;1616791;87;21692;-62
2021/11/26 06:18:10;;;;;;;41.55;22.30;;;;;;;2.04;100.00;100929.27;1616494;87;20992;-60
2021/11/26 06:20:37;;;;;;;35.83;20.62;;;;;;;2.39;100.00;100935.71;1616588;87;21165;-69
2021/11/26 06:23:05;;;;;;;32.45;18.75;;;;;;;2.24;100.00;100929.59;1617015;87;21027;-59
2021/11/26 06:25:32;;;;;;;27.52;16.00;;;;;;;2.39;100.00;100935.71;1617359;87;21039;-61
2021/11/26 06:28:00;;;;;;;28.73;16.17;;;;;;;2.49;100.00;100935.83;1616659;87;21044;-69
2021/11/26 06:30:29;;;;;;;26.15;15.85;;;;;;;2.63;100.00;100936.92;1616681;87;21121;-60
2021/11/26 06:32:57;;;;;;;31.33;17.52;;;;;;;2.92;100.00;100935.20;1615992;87;21180;-61
2021/11/26 06:35:24;;;;;;;29.07;15.68;;;;;;;3.12;100.00;100934.95;1628870;85;21147;-61
2021/11/26 06:37:52;;;;;;;28.47;16.27;;;;;;;2.63;100.00;100934.81;1631065;86;21135;-70
2021/11/26 06:40:21;;;;;;;22.32;14.07;;;;;;;2.73;100.00;100928.05;1621787;86;21098;-60
2021/11/26 06:42:50;;;;;;;27.50;15.83;;;;;;;2.56;100.00;100923.34;1634303;86;21059;-65
2021/11/26 06:45:19;;;;;;;25.12;16.10;;;;;;;2.78;100.00;100919.97;1638371;85;21159;-61
2021/11/26 06:47:47;;;;;;;53.40;33.55;;;;;;;2.75;100.00;100924.87;1636884;86;20952;-60
2021/11/26 06:50:16;;;;;;;74.40;48.73;;;;;;;2.63;100.00;100929.67;1635779;86;20967;-62
2021/11/26 06:52:43;;;;;;;38.98;25.85;;;;;;;2.59;100.00;100911.06;1636041;86;21007;-60
2021/11/26 06:55:13;;;;;;;33.92;23.00;;;;;;;2.92;100.00;100906.88;1635691;86;21534;-60
2021/11/26 06:57:41;;;;;;;26.23;18.10;;;;;;;3.14;100.00;100905.58;1636677;86;21196;-60
2021/11/26 07:00:11;;;;;;;27.93;17.07;;;;;;;3.36;100.00;100902.13;1625139;86;20943;-61
2021/11/26 07:02:39;;;;;;;31.12;18.02;;;;;;;3.56;100.00;100897.99;1666596;84;21100;-61
2021/11/26 07:05:07;;;;;;;42.83;27.42;;;;;;;3.58;100.00;100908.17;1681681;83;20985;-69
2021/11/26 07:07:37;;;;;;;32.95;22.17;;;;;;;3.60;100.00;100911.45;1660174;85;21715;-59
2021/11/26 07:10:07;;;;;;;33.40;20.10;;;;;;;3.51;100.00;100907.83;1654819;85;21534;-60
2021/11/26 07:12:34;;;;;;;28.20;18.27;;;;;;;3.79;100.00;100906.47;1652764;85;21036;-60
2021/11/26 07:15:03;;;;;;;25.70;16.15;;;;;;;4.05;100.00;100905.66;1655470;85;21095;-65
2021/11/26 07:17:30;;;;;;;25.85;17.10;;;;;;;4.08;100.00;100901.98;1653300;85;20999;-59
2021/11/26 07:19:58;;;;;;;24.75;17.55;;;;;;;4.32;100.00;100910.31;1653159;86;20920;-67
2021/11/26 07:22:25;;;;;;;23.47;15.28;;;;;;;4.22;100.00;100902.16;1653578;85;21170;-59
2021/11/26 07:24:53;;;;;;;22.75;15.18;;;;;;;4.19;100.00;100899.83;1653096;85;21106;-63
2021/11/26 07:27:23;;;;;;;29.07;17.77;;;;;;;4.24;100.00;100909.29;1653888;85;21102;-61
2021/11/26 07:29:51;;;;;;;24.23;15.58;;;;;;;4.23;100.00;100906.38;1653171;85;20877;-66
2021/11/26 07:32:19;;;;;;;24.10;15.60;;;;;;;4.31;100.00;100915.59;1653564;85;21959;-61
2021/11/26 07:34:47;;;;;;;21.10;14.18;;;;;;;3.96;100.00;100914.59;1653722;86;21382;-67
2021/11/26 07:37:14;;;;;;;24.32;15.28;;;;;;;4.26;100.00;100915.16;1652800;85;20925;-59
2021/11/26 07:39:41;;;;;;;22.42;15.32;;;;;;;4.52;100.00;100909.14;1653226;85;21095;-68
2021/11/26 07:42:10;;;;;;;22.62;14.90;;;;;;;4.50;100.00;100902.80;1662287;84;21137;-59
2021/11/26 07:44:38;;;;;;;24.43;17.20;;;;;;;4.33;100.00;100903.39;1662906;84;21705;-59
2021/11/26 07:47:07;;;;;;;22.85;15.88;;;;;;;4.28;100.00;100899.91;1680791;83;21106;-61
2021/11/26 07:49:34;;;;;;;26.45;15.45;;;;;;;4.30;100.00;100894.13;1681353;84;21000;-63
2021/11/26 07:52:02;;;;;;;27.67;17.00;;;;;;;4.55;100.00;100901.95;1652924;85;21043;-61
2021/11/26 07:54:29;;;;;;;24.80;15.45;;;;;;;4.43;100.00;100901.66;1652988;86;21003;-59
2021/11/26 07:56:57;;;;;;;26.95;16.62;;;;;;;4.43;100.00;100904.72;1653481;86;20901;-67
2021/11/26 07:59:26;;;;;;;25.02;15.45;;;;;;;4.63;100.00;100903.90;1652904;85;21143;-59
2021/11/26 08:01:54;;;;;;;26.73;16.32;;;;;;;4.59;100.00;100898.17;1652103;85;20973;-60
2021/11/26 08:04:21;;;;;;;26.87;16.70;;;;;;;4.74;100.00;100897.36;1720529;82;21096;-62
2021/11/26 08:06:48;;;;;;;29.85;18.77;;;;;;;4.74;100.00;100887.51;1708904;82;21015;-60
2021/11/26 08:09:21;;;;;;;32.45;22.20;;;;;;;4.77;100.00;100879.48;1672530;85;20848;-69
2021/11/26 08:11:50;;;;;;;27.65;17.73;;;;;;;5.01;100.00;100873.52;1712176;82;21065;-60
2021/11/26 08:14:19;;;;;;;27.45;16.73;;;;;;;4.81;100.00;100876.97;1713277;83;21045;-59
2021/11/26 08:16:47;;;;;;;26.60;16.27;;;;;;;4.99;100.00;100861.67;1712547;83;20904;-59
2021/11/26 08:19:14;;;;;;;26.85;16.48;;;;;;;5.17;100.00;100854.92;1713512;82;21013;-67
2021/11/26 08:21:42;;;;;;;26.00;16.50;;;;;;;5.49;100.00;100853.42;1712826;82;21014;-62
2021/11/26 08:24:09;;;;;;;26.45;16.70;;;;;;;6.07;100.00;100849.52;1715215;82;22733;-60
2021/11/26 08:26:37;;;;;;;24.35;15.18;;;;;;;5.94;100.00;100839.11;1712489;82;21034;-61
2021/11/26 08:29:08;;;;;;;28.55;17.98;;;;;;;6.12;100.00;100839.23;1715529;82;21161;-64
2021/11/26 08:31:35;;;;;;;29.37;18.32;;;;;;;5.63;100.00;100840.54;1715560;82;20979;-59
2021/11/26 08:34:03;;;;;;;24.18;15.18;;;;;;;5.41;100.00;100850.66;1714816;82;21109;-59
2021/11/26 08:36:30;;;;;;;26.80;16.52;;;;;;;5.48;100.00;100833.66;1712435;82;21126;-59
2021/11/26 08:38:58;;;;;;;32.53;19.05;;;;;;;5.76;100.00;100835.92;1713272;83;20986;-59
2021/11/26 08:41:26;;;;;;;32.65;19.12;;;;;;;5.74;100.00;100830.05;1683783;83;21056;-61
2021/11/26 08:43:54;;;;;;;34.45;19.20;;;;;;;5.75;100.00;100828.28;1684475;83;20980;-63
2021/11/26 08:46:21;;;;;;;33.38;19.57;;;;;;;6.00;100.00;100824.34;1714868;82;21125;-60
2021/11/26 08:48:50;;;;;;;30.57;19.92;;;;;;;6.01;100.00;100819.50;1720935;82;21162;-59
2021/11/26 08:51:18;;;;;;;30.50;19.45;;;;;;;6.36;100.00;100822.73;1718618;82;21504;-60
2021/11/26 08:53:46;;;;;;;40.52;22.27;;;;;;;6.40;97.95;100809.83;1719436;82;20938;-68
2021/11/26 08:56:14;;;;;;;32.85;20.60;;;;;;;6.23;99.26;100811.88;1715465;82;20947;-63
2021/11/26 08:58:45;;;;;;;31.90;20.08;;;;;;;5.76;100.00;100807.95;1713452;83;20974;-61
2021/11/26 09:01:11;;;;;;;39.00;22.25;;;;;;;6.32;100.00;100804.06;1702403;83;21187;-60
2021/11/26 09:03:39;;;;;;;41.35;21.82;;;;;;;6.69;96.42;100799.35;1684425;82;21627;-60
2021/11/26 09:06:06;;;;;;;35.92;21.75;;;;;;;6.97;93.01;100798.03;1724122;81;20915;-60
2021/11/26 09:08:33;;;;;;;37.65;21.25;;;;;;;6.93;91.23;100780.69;1729831;81;21489;-59
2021/11/26 09:11:02;;;;;;;38.02;21.52;;;;;;;7.06;91.63;100775.13;1703056;82;21105;-67
2021/11/26 09:13:30;;;;;;;42.20;23.95;;;;;;;6.66;96.93;100771.63;1716146;82;21216;-61
2021/11/26 09:15:57;;;;;;;38.92;24.00;;;;;;;6.27;99.60;100779.58;1718831;82;21061;-61
2021/11/26 09:18:25;;;;;;;40.30;22.25;;;;;;;6.26;100.00;100773.59;1717438;83;21011;-62
2021/11/26 09:20:53;;;;;;;38.00;21.45;;;;;;;7.05;100.00;100767.03;1717744;83;21153;-61
2021/11/26 09:23:20;;;;;;;41.92;23.52;;;;;;;7.40;100.00;100762.31;1719634;81;21067;-62
2021/11/26 09:25:49;;;;;;;41.58;22.52;;;;;;;7.88;90.21;100757.15;1734579;81;21346;-61
2021/11/26 09:28:18;;;;;;;35.88;21.17;;;;;;;8.38;77.90;100746.06;1714633;82;21069;-59
2021/11/26 09:30:48;;;;;;;43.50;23.50;;;;;;;8.81;69.57;100748.13;1717118;82;21010;-60
2021/11/26 09:33:17;;;;;;;39.60;22.58;;;;;;;8.85;68.01;100740.34;1717987;82;20994;-60
2021/11/26 09:35:45;;;;;;;39.60;22.52;;;;;;;8.71;67.86;100749.59;1717996;82;21149;-60
2021/11/26 09:38:14;;;;;;;42.67;23.83;;;;;;;8.93;64.65;100746.84;1717797;82;22633;-59
2021/11/26 09:40:44;;;;;;;51.23;28.47;;;;;;;8.55;66.45;100748.22;1719682;81;20941;-59
2021/11/26 09:43:13;;;;;;;47.55;26.45;;;;;;;8.64;66.21;100747.78;1733553;81;20918;-67
2021/11/26 09:45:43;;;;;;;47.80;25.88;;;;;;;8.18;71.91;100742.88;1728657;81;20987;-61
2021/11/26 09:48:10;;;;;;;48.02;26.70;;;;;;;8.63;71.02;100733.14;1717847;83;21737;-60
2021/11/26 09:50:38;;;;;;;45.92;24.87;;;;;;;8.83;68.19;100730.60;1719478;81;21143;-60
2021/11/26 09:53:18;;;;;;;44.18;23.83;;;;;;;8.92;62.67;100730.12;1727079;81;21118;-59
2021/11/26 09:55:51;;;;;;;44.83;23.92;;;;;;;9.08;59.87;100715.02;1714317;82;22424;-69
2021/11/26 09:58:20;;;;;;;38.88;22.52;;;;;;;8.94;61.48;100716.00;1716945;83;21570;-60
2021/11/26 10:00:49;;;;;;;32.70;20.37;;;;;;;9.20;60.40;100731.43;1718539;82;21556;-61
2021/11/26 10:03:16;;;;;;;41.33;22.98;;;;;;;9.52;57.30;100715.50;1714968;82;21200;-60
2021/11/26 10:05:45;;;;;;;40.92;23.38;;;;;;;9.72;55.31;100715.95;1711177;82;21014;-60
2021/11/26 10:08:23;;;;;;;48.23;25.08;;;;;;;9.94;53.58;100705.31;1713404;83;21103;-60
2021/11/26 10:10:59;;;;;;;60.15;31.57;;;;;;;9.44;52.99;100707.21;1711580;83;21008;-69
2021/11/26 10:13:31;;;;;;;47.40;26.30;;;;;;;9.25;53.18;100710.97;1712765;83;22363;-62
2021/11/26 10:16:08;;;;;;;42.85;25.17;;;;;;;9.39;52.90;100706.06;1702660;83;21160;-60
2021/11/26 10:18:35;;;;;;;43.02;23.65;;;;;;;8.88;53.36;100702.81;1678254;85;21001;-59
2021/11/26 10:21:08;;;;;;;39.90;24.15;;;;;;;8.68;54.22;100704.91;1712264;83;21089;-60
2021/11/26 10:23:44;;;;;;;40.90;24.43;;;;;;;8.70;54.17;100701.16;1713238;83;21110;-59
2021/11/26 10:26:28;;;;;;;40.52;24.12;;;;;;;8.48;55.05;100693.95;1713692;83;20983;-59
2021/11/26 10:29:02;;;;;;;43.73;25.32;;;;;;;8.36;55.21;100694.70;1712089;83;21072;-61
2021/11/26 10:31:37;;;;;;;42.98;24.72;;;;;;;8.62;54.48;100697.73;1713468;83;20888;-60
2021/11/26 10:34:06;;;;;;;38.88;22.27;;;;;;;8.50;54.18;100701.13;1712590;82;21610;-61
2021/11/26 10:36:46;;;;;;;44.33;24.03;;;;;;;8.76;54.15;100699.23;1711630;82;21057;-70
2021/11/26 10:39:19;;;;;;;45.45;24.02;;;;;;;8.81;54.66;100694.84;1678649;84;21019;-61
2021/11/26 10:41:58;;;;;;;43.20;25.30;;;;;;;7.41;59.86;100707.36;1712220;82;21155;-59
2021/11/26 10:44:53;;;;;;;47.00;27.40;;;;;;;7.19;62.86;100707.34;1710527;82;20998;-68
2021/11/26 10:47:55;;;;;;;41.68;24.77;;;;;;;7.05;65.91;100706.12;1699498;82;21141;-61
2021/11/26 10:50:05;;;;;;;46.37;25.60;;;;;;;6.89;66.51;100705.46;1660802;84;20986;-59
2021/11/26 10:58:03;;;;;;;58.30;31.65;;;;;;;7.08;66.18;100713.57;1711376;82;21094;-68
2021/11/26 11:00:32;;;;;;;48.70;26.68;;;;;;;7.31;64.47;100711.33;1713172;82;20911;-60
2021/11/26 11:03:00;;;;;;;47.03;27.10;;;;;;;7.60;62.37;100705.05;1712189;82;20983;-69
2021/11/26 11:05:38;;;;;;;47.95;26.12;;;;;;;7.52;62.26;100714.41;1722834;82;21068;-60
2021/11/26 11:08:21;;;;;;;45.98;25.48;;;;;;;7.68;60.64;100707.70;1713055;83;21620;-60
2021/11/26 11:10:50;;;;;;;48.78;25.08;;;;;;;7.88;59.65;100710.42;1677732;85;21533;-61
2021/11/26 11:13:29;;;;;;;45.73;25.32;;;;;;;7.98;58.74;100712.89;1711070;82;21006;-62
2021/11/26 11:16:11;;;;;;;47.58;26.07;;;;;;;7.90;58.56;100707.66;1712662;82;21313;-59
2021/11/26 11:18:38;;;;;;;45.48;25.10;;;;;;;7.63;58.56;100708.16;1712308;82;21535;-59
2021/11/26 11:21:07;;;;;;;42.93;23.98;;;;;;;8.00;56.95;100697.50;1713025;82;21514;-59